createdAt,value
2022-09-20T00:00:37.721Z,97.62
2022-09-20T00:02:59.160Z,96.93
2022-09-20T00:05:20.612Z,95.95
2022-09-20T00:07:45.205Z,96.71
2022-09-20T00:10:06.839Z,97.98
2022-09-20T00:12:28.258Z,98.85
2022-09-20T00:14:49.686Z,99.24
2022-09-20T00:17:11.256Z,98.93
2022-09-20T00:19:32.716Z,99.05
2022-09-20T00:21:54.143Z,98.60
2022-09-20T00:24:16.112Z,97.11
2022-09-20T00:26:38.084Z,97.98
2022-09-20T00:29:00.148Z,99.75
2022-09-20T00:31:21.684Z,100.00
2022-09-20T00:34:02.480Z,100.00
2022-09-20T00:36:24.636Z,100.00
2022-09-20T00:38:46.210Z,100.00
2022-09-20T00:41:08.981Z,100.00
2022-09-20T00:43:45.575Z,100.00
2022-09-20T00:46:32.903Z,100.00
2022-09-20T00:48:59.628Z,100.00
2022-09-20T00:51:28.622Z,100.00
2022-09-20T00:53:51.282Z,100.00
2022-09-20T00:56:20.235Z,100.00
2022-09-20T00:58:50.398Z,100.00
2022-09-20T01:01:12.754Z,100.00
2022-09-20T01:03:38.133Z,100.00
2022-09-20T01:06:04.078Z,100.00
2022-09-20T01:08:25.756Z,100.00
2022-09-20T01:10:47.356Z,100.00
2022-09-20T01:13:08.776Z,100.00
2022-09-20T01:15:31.777Z,100.00
2022-09-20T01:17:55.632Z,100.00
2022-09-20T01:20:26.144Z,100.00
2022-09-20T01:22:47.458Z,100.00
2022-09-20T01:25:30.637Z,100.00
2022-09-20T01:27:53.920Z,100.00
2022-09-20T01:30:19.214Z,100.00
2022-09-20T01:33:02.795Z,100.00
2022-09-20T01:35:25.771Z,100.00
2022-09-20T01:38:12.585Z,100.00
2022-09-20T01:41:03.306Z,100.00
2022-09-20T01:43:52.997Z,100.00
2022-09-20T01:46:32.566Z,100.00
2022-09-20T01:49:06.149Z,100.00
2022-09-20T01:51:27.635Z,100.00
2022-09-20T01:53:59.570Z,100.00
2022-09-20T01:56:39.214Z,100.00
2022-09-20T01:59:23.185Z,100.00
2022-09-20T02:01:54.201Z,100.00
2022-09-20T02:04:52.923Z,100.00
2022-09-20T02:07:49.097Z,100.00
2022-09-20T02:10:41.861Z,100.00
2022-09-20T02:13:07.565Z,100.00
2022-09-20T02:15:47.864Z,100.00
2022-09-20T02:18:18.287Z,100.00
2022-09-20T02:21:00.702Z,100.00
2022-09-20T02:23:33.693Z,100.00
2022-09-20T02:25:59.873Z,100.00
2022-09-20T02:28:42.732Z,100.00
2022-09-20T02:31:28.853Z,100.00
2022-09-20T02:34:02.314Z,100.00
2022-09-20T02:36:47.750Z,100.00
2022-09-20T02:39:31.902Z,100.00
2022-09-20T02:42:37.029Z,100.00
2022-09-20T02:45:08.489Z,100.00
2022-09-20T02:47:37.324Z,100.00
2022-09-20T02:50:40.958Z,100.00
2022-09-20T02:53:11.227Z,100.00
2022-09-20T02:55:32.605Z,100.00
2022-09-20T02:58:12.491Z,100.00
2022-09-20T03:00:48.388Z,99.93
2022-09-20T03:03:31.802Z,100.00
2022-09-20T03:06:24.377Z,100.00
2022-09-20T03:08:58.129Z,100.00
2022-09-20T03:11:41.170Z,100.00
2022-09-20T03:14:22.988Z,100.00
2022-09-20T03:17:04.482Z,100.00
2022-09-20T03:19:38.223Z,100.00
2022-09-20T03:22:11.073Z,100.00
2022-09-20T03:24:44.587Z,100.00
2022-09-20T03:27:15.673Z,100.00
2022-09-20T03:29:59.467Z,100.00
2022-09-20T03:32:33.077Z,100.00
2022-09-20T03:35:16.332Z,100.00
2022-09-20T03:38:02.665Z,99.88
2022-09-20T03:41:08.775Z,100.00
2022-09-20T03:43:36.247Z,100.00
2022-09-20T03:46:26.993Z,100.00
2022-09-20T03:48:57.179Z,100.00
2022-09-20T03:51:47.937Z,100.00
2022-09-20T03:54:37.104Z,99.29
2022-09-20T03:57:23.679Z,99.90
2022-09-20T03:59:54.228Z,99.53
2022-09-20T04:02:34.954Z,99.64
2022-09-20T04:05:01.504Z,100.00
2022-09-20T04:07:53.614Z,100.00
2022-09-20T04:10:40.816Z,100.00
2022-09-20T04:13:40.919Z,100.00
2022-09-20T04:16:14.984Z,100.00
2022-09-20T04:18:56.728Z,100.00
2022-09-20T04:21:51.628Z,100.00
2022-09-20T04:24:28.268Z,99.99
2022-09-20T04:26:56.843Z,100.00
2022-09-20T04:29:40.766Z,100.00
2022-09-20T04:32:19.507Z,100.00
2022-09-20T04:35:06.296Z,100.00
2022-09-20T04:37:33.138Z,100.00
2022-09-20T04:40:03.509Z,100.00
2022-09-20T04:43:08.063Z,100.00
2022-09-20T04:45:41.616Z,100.00
2022-09-20T04:48:25.754Z,100.00
2022-09-20T04:51:28.154Z,100.00
2022-09-20T04:54:19.900Z,100.00
2022-09-20T04:57:06.565Z,100.00
2022-09-20T05:00:01.359Z,100.00
2022-09-20T05:02:40.108Z,100.00
2022-09-20T05:05:32.746Z,100.00
2022-09-20T05:08:31.667Z,100.00
2022-09-20T05:10:55.704Z,100.00
2022-09-20T05:13:35.881Z,100.00
2022-09-20T05:16:08.242Z,99.65
2022-09-20T05:18:51.067Z,100.00
2022-09-20T05:21:34.373Z,99.55
2022-09-20T05:24:32.117Z,100.00
2022-09-20T05:27:33.528Z,99.36
2022-09-20T05:30:12.893Z,100.00
2022-09-20T05:32:48.594Z,100.00
2022-09-20T05:35:28.373Z,100.00
2022-09-20T05:38:02.173Z,99.95
2022-09-20T05:41:00.380Z,100.00
2022-09-20T05:43:32.096Z,100.00
2022-09-20T05:46:14.736Z,100.00
2022-09-20T05:48:44.283Z,100.00
2022-09-20T05:51:08.753Z,100.00
2022-09-20T05:53:50.836Z,100.00
2022-09-20T05:56:47.573Z,100.00
2022-09-20T05:59:30.199Z,100.00
2022-09-20T06:02:09.432Z,100.00
2022-09-20T06:04:50.497Z,100.00
2022-09-20T06:07:32.272Z,100.00
2022-09-20T06:10:19.930Z,100.00
2022-09-20T06:13:11.702Z,100.00
2022-09-20T06:15:44.835Z,100.00
2022-09-20T06:18:22.149Z,100.00
2022-09-20T06:20:51.904Z,100.00
2022-09-20T06:23:14.559Z,100.00
2022-09-20T06:25:45.200Z,100.00
2022-09-20T06:28:18.818Z,100.00
2022-09-20T06:30:45.739Z,100.00
2022-09-20T06:33:07.123Z,100.00
2022-09-20T06:35:37.102Z,100.00
2022-09-20T06:38:41.760Z,100.00
2022-09-20T06:41:22.393Z,100.00
2022-09-20T06:43:43.870Z,99.14
2022-09-20T06:46:05.562Z,99.52
2022-09-20T06:48:27.244Z,98.88
2022-09-20T06:50:48.682Z,100.00
2022-09-20T06:53:17.741Z,99.96
2022-09-20T06:55:40.952Z,100.00
2022-09-20T06:58:02.486Z,99.64
2022-09-20T07:00:24.468Z,99.25
2022-09-20T07:02:46.695Z,98.88
2022-09-20T07:05:14.455Z,98.29
2022-09-20T07:07:35.909Z,100.00
2022-09-20T07:09:58.507Z,99.90
2022-09-20T07:12:19.996Z,99.92
2022-09-20T07:14:43.057Z,99.78
2022-09-20T07:17:04.814Z,100.00
2022-09-20T07:19:26.251Z,100.00
2022-09-20T07:21:47.673Z,99.32
2022-09-20T07:24:09.091Z,99.16
2022-09-20T07:26:31.307Z,99.05
2022-09-20T07:28:53.578Z,99.21
2022-09-20T07:31:15.981Z,97.85
2022-09-20T07:33:37.479Z,96.24
2022-09-20T07:35:58.889Z,96.34
2022-09-20T07:38:22.068Z,95.81
2022-09-20T07:40:46.178Z,95.68
2022-09-20T07:43:08.048Z,94.54
2022-09-20T07:45:31.181Z,95.35
2022-09-20T07:47:53.413Z,94.09
2022-09-20T07:50:15.063Z,92.98
2022-09-20T07:52:36.511Z,94.15
2022-09-20T07:54:58.009Z,93.13
2022-09-20T07:57:19.429Z,92.88
2022-09-20T07:59:40.838Z,92.36
2022-09-20T08:02:02.368Z,92.53
2022-09-20T08:04:23.814Z,91.53
2022-09-20T08:06:46.384Z,89.95
2022-09-20T08:09:11.057Z,91.10
2022-09-20T08:11:34.370Z,90.91
2022-09-20T08:14:08.147Z,91.84
2022-09-20T08:16:31.837Z,92.27
2022-09-20T08:18:57.228Z,90.23
2022-09-20T08:21:19.231Z,89.29
2022-09-20T08:23:42.718Z,85.72
2022-09-20T08:26:07.718Z,86.66
2022-09-20T08:28:31.513Z,85.85
2022-09-20T08:30:52.949Z,86.59
2022-09-20T08:33:15.148Z,87.16
2022-09-20T08:35:38.125Z,82.21
2022-09-20T08:39:57.338Z,80.45
2022-09-20T08:40:41.823Z,80.26
2022-09-20T08:43:05.530Z,78.35
2022-09-20T08:45:38.297Z,79.55
2022-09-20T08:48:05.627Z,79.68
2022-09-20T08:50:27.498Z,83.14
2022-09-20T08:53:00.039Z,85.30
2022-09-20T08:55:26.175Z,83.55
2022-09-20T08:57:50.619Z,85.73
2022-09-20T09:00:24.614Z,86.73
2022-09-20T09:02:46.321Z,88.87
2022-09-20T09:05:28.523Z,90.35
2022-09-20T09:07:50.185Z,91.94
2022-09-20T09:10:11.777Z,92.35
2022-09-20T09:12:35.322Z,91.42
2022-09-20T09:15:03.785Z,93.21
2022-09-20T09:17:28.247Z,93.15
2022-09-20T09:20:22.384Z,94.80
2022-09-20T09:22:46.084Z,95.79
2022-09-20T09:25:16.886Z,93.80
2022-09-20T09:27:52.390Z,93.35
2022-09-20T09:30:25.110Z,91.11
2022-09-20T09:32:46.656Z,89.05
2022-09-20T09:35:29.354Z,89.04
2022-09-20T09:37:57.116Z,85.90
2022-09-20T09:40:19.390Z,85.22
2022-09-20T09:42:50.148Z,86.19
2022-09-20T09:45:13.431Z,85.14
2022-09-20T09:47:37.523Z,83.78
2022-09-20T09:50:03.696Z,79.43
2022-09-20T09:52:33.277Z,80.91
2022-09-20T09:55:02.785Z,82.02
2022-09-20T09:57:38.388Z,78.26
2022-09-20T10:00:10.571Z,78.28
2022-09-20T10:02:49.532Z,75.86
2022-09-20T10:05:33.007Z,78.29
2022-09-20T10:08:35.306Z,78.65
2022-09-20T10:11:17.645Z,73.16
2022-09-20T10:14:03.503Z,74.40
2022-09-20T10:16:35.152Z,73.13
2022-09-20T10:19:12.641Z,73.81
2022-09-20T10:21:52.216Z,72.32
2022-09-20T10:24:30.816Z,70.92
2022-09-20T10:27:33.677Z,69.34
2022-09-20T10:30:09.605Z,67.08
2022-09-20T10:32:45.812Z,69.70
2022-09-20T10:35:29.388Z,69.30
2022-09-20T10:38:16.649Z,71.16
2022-09-20T10:41:21.486Z,68.00
2022-09-20T10:43:48.715Z,68.69
2022-09-20T10:46:47.684Z,69.96
2022-09-20T10:49:27.027Z,69.00
2022-09-20T10:52:12.126Z,71.36
2022-09-20T10:54:43.622Z,69.74
2022-09-20T10:57:07.776Z,68.42
2022-09-20T10:59:51.317Z,70.03
2022-09-20T11:02:41.564Z,71.94
2022-09-20T11:05:18.968Z,70.14
2022-09-20T11:08:02.309Z,69.48
2022-09-20T11:10:36.195Z,66.35
2022-09-20T11:13:06.348Z,69.14
2022-09-20T11:15:35.169Z,67.13
2022-09-20T11:18:04.683Z,68.04
2022-09-20T11:21:08.083Z,68.09
2022-09-20T11:24:05.447Z,64.59
2022-09-20T11:26:34.889Z,63.83
2022-09-20T11:29:08.259Z,64.05
2022-09-20T11:31:42.522Z,62.69
2022-09-20T11:34:25.907Z,62.76
2022-09-20T11:36:57.627Z,65.51
2022-09-20T11:39:29.464Z,65.87
2022-09-20T11:41:55.031Z,65.80
2022-09-20T11:44:19.861Z,66.04
2022-09-20T11:47:09.547Z,66.01
2022-09-20T11:50:22.051Z,68.63
2022-09-20T11:53:20.281Z,67.34
2022-09-20T11:55:52.369Z,68.44
2022-09-20T11:58:17.178Z,70.74
2022-09-20T12:00:45.033Z,70.61
2022-09-20T12:03:21.557Z,70.64
2022-09-20T12:05:43.771Z,69.37
2022-09-20T12:08:22.149Z,71.01
2022-09-20T12:10:56.373Z,70.08
2022-09-20T12:13:24.413Z,71.03
2022-09-20T12:15:46.402Z,74.99
2022-09-20T12:18:12.482Z,75.41
2022-09-20T12:20:39.926Z,75.67
2022-09-20T12:23:38.882Z,72.15
2022-09-20T12:26:20.774Z,70.74
2022-09-20T12:28:50.059Z,76.08
2022-09-20T12:31:31.777Z,75.83
2022-09-20T12:34:11.960Z,75.68
2022-09-20T12:36:39.252Z,76.20
2022-09-20T12:39:23.342Z,76.24
2022-09-20T12:41:57.550Z,76.84
2022-09-20T12:44:31.098Z,75.71
2022-09-20T12:46:59.510Z,71.94
2022-09-20T12:49:48.522Z,71.88
2022-09-20T12:52:41.708Z,69.94
2022-09-20T12:55:08.960Z,69.94
2022-09-20T12:57:32.963Z,71.91
2022-09-20T13:00:01.287Z,70.96
2022-09-20T13:02:42.623Z,69.41
2022-09-20T13:05:32.185Z,70.57
2022-09-20T13:08:00.366Z,70.28
2022-09-20T13:10:35.800Z,71.43
2022-09-20T13:13:07.582Z,74.13
2022-09-20T13:15:29.595Z,75.30
2022-09-20T13:17:55.052Z,75.17
2022-09-20T13:20:24.414Z,74.22
2022-09-20T13:22:47.220Z,73.08
2022-09-20T13:25:14.325Z,73.76
2022-09-20T13:27:40.197Z,73.19
2022-09-20T13:30:17.472Z,69.54
2022-09-20T13:32:41.761Z,72.58
2022-09-20T13:35:12.173Z,70.07
2022-09-20T13:37:35.007Z,69.73
2022-09-20T13:39:57.322Z,67.52
2022-09-20T13:42:21.668Z,63.73
2022-09-20T13:44:43.545Z,63.43
2022-09-20T13:47:29.443Z,61.48
2022-09-20T13:49:51.192Z,60.22
2022-09-20T13:52:28.129Z,61.82
2022-09-20T13:54:49.579Z,59.83
2022-09-20T13:57:21.299Z,60.33
2022-09-20T13:59:45.505Z,60.34
2022-09-20T14:02:23.086Z,59.25
2022-09-20T14:04:45.084Z,62.52
2022-09-20T14:07:07.238Z,63.67
2022-09-20T14:09:34.006Z,65.68
2022-09-20T14:11:56.268Z,65.33
2022-09-20T14:14:22.169Z,64.58
2022-09-20T14:16:46.714Z,65.81
2022-09-20T14:19:08.513Z,65.54
2022-09-20T14:21:34.411Z,65.01
2022-09-20T14:24:02.196Z,62.30
2022-09-20T14:26:27.885Z,63.07
2022-09-20T14:28:49.389Z,63.35
2022-09-20T14:31:22.032Z,63.44
2022-09-20T14:33:54.910Z,62.45
2022-09-20T14:36:22.027Z,63.75
2022-09-20T14:38:45.731Z,65.96
2022-09-20T14:41:07.279Z,65.13
2022-09-20T14:43:34.842Z,66.60
2022-09-20T14:45:58.982Z,65.98
2022-09-20T14:48:21.423Z,66.56
2022-09-20T14:50:45.464Z,68.11
2022-09-20T14:53:10.800Z,66.80
2022-09-20T14:55:37.366Z,61.36
2022-09-20T14:58:10.980Z,62.13
2022-09-20T15:00:59.109Z,59.45
2022-09-20T15:03:31.081Z,59.75
2022-09-20T15:05:52.535Z,58.92
2022-09-20T15:08:15.492Z,57.29
2022-09-20T15:10:36.911Z,57.10
2022-09-20T15:12:58.520Z,53.54
2022-09-20T15:15:20.022Z,49.31
2022-09-20T15:17:42.634Z,48.25
2022-09-20T15:20:04.437Z,47.74
2022-09-20T15:22:26.522Z,46.96
2022-09-20T15:24:47.931Z,47.13
2022-09-20T15:27:12.144Z,45.58
2022-09-20T15:29:33.679Z,45.28
2022-09-20T15:31:55.309Z,46.73
2022-09-20T15:34:16.861Z,48.84
2022-09-20T15:36:39.698Z,48.51
2022-09-20T15:39:09.299Z,48.11
2022-09-20T15:41:32.319Z,50.64
2022-09-20T15:43:53.824Z,51.04
2022-09-20T15:46:20.280Z,54.79
2022-09-20T15:48:43.308Z,55.94
2022-09-20T15:51:06.957Z,54.48
2022-09-20T15:53:34.315Z,56.15
2022-09-20T15:55:55.860Z,55.05
2022-09-20T15:58:17.665Z,55.97
2022-09-20T16:00:40.530Z,56.60
2022-09-20T16:03:02.007Z,57.94
2022-09-20T16:05:23.860Z,59.10
2022-09-20T16:07:46.413Z,58.02
2022-09-20T16:10:08.397Z,60.13
2022-09-20T16:12:29.841Z,60.56
2022-09-20T16:14:51.655Z,60.55
2022-09-20T16:17:13.226Z,62.55
2022-09-20T16:19:34.621Z,62.96
2022-09-20T16:21:58.502Z,63.52
2022-09-20T16:24:24.654Z,63.87
2022-09-20T16:26:46.902Z,67.22
2022-09-20T16:29:08.564Z,68.03
2022-09-20T16:31:40.338Z,70.99
2022-09-20T16:34:03.814Z,70.61
2022-09-20T16:36:27.406Z,71.80
2022-09-20T16:38:49.192Z,74.03
2022-09-20T16:41:11.707Z,73.63
2022-09-20T16:43:33.791Z,75.00
2022-09-20T16:46:01.479Z,74.49
2022-09-20T16:48:23.006Z,74.50
2022-09-20T16:50:54.233Z,74.40
2022-09-20T16:53:15.681Z,74.30
2022-09-20T16:55:37.095Z,73.57
2022-09-20T16:57:58.523Z,74.74
2022-09-20T17:00:21.892Z,74.85
2022-09-20T17:02:47.733Z,75.89
2022-09-20T17:05:09.588Z,77.47
2022-09-20T17:07:33.811Z,78.23
2022-09-20T17:10:01.212Z,76.93
2022-09-20T17:12:25.067Z,76.33
2022-09-20T17:14:46.493Z,75.56
2022-09-20T17:17:07.919Z,76.09
2022-09-20T17:19:29.372Z,77.64
2022-09-20T17:21:51.210Z,77.33
2022-09-20T17:24:14.126Z,76.71
2022-09-20T17:26:40.900Z,76.39
2022-09-20T17:29:03.862Z,76.81
2022-09-20T17:31:32.257Z,77.42
2022-09-20T17:33:54.220Z,78.40
2022-09-20T17:36:21.444Z,78.29
2022-09-20T17:38:42.931Z,78.96
2022-09-20T17:41:10.637Z,78.67
2022-09-20T17:43:32.171Z,78.77
2022-09-20T17:45:53.648Z,79.52
2022-09-20T17:48:15.118Z,79.03
2022-09-20T17:50:36.580Z,79.44
2022-09-20T17:52:57.993Z,79.14
2022-09-20T17:55:19.837Z,78.87
2022-09-20T17:57:41.279Z,78.98
2022-09-20T18:00:02.814Z,78.88
2022-09-20T18:02:24.257Z,78.68
2022-09-20T18:04:45.673Z,78.65
2022-09-20T18:07:07.106Z,78.88
2022-09-20T18:09:28.534Z,78.45
2022-09-20T18:11:52.754Z,78.25
2022-09-20T18:14:15.165Z,78.15
2022-09-20T18:16:37.686Z,78.13
2022-09-20T18:18:59.869Z,77.92
2022-09-20T18:21:23.727Z,78.07
2022-09-20T18:23:46.363Z,77.91
2022-09-20T18:26:24.668Z,77.88
2022-09-20T18:28:48.840Z,78.67
2022-09-20T18:31:10.512Z,78.86
2022-09-20T18:33:32.162Z,79.04
2022-09-20T18:35:59.718Z,80.02
2022-09-20T18:38:21.592Z,81.27
2022-09-20T18:40:43.892Z,81.94
2022-09-20T18:43:07.861Z,81.49
2022-09-20T18:45:29.280Z,81.00
2022-09-20T18:47:59.586Z,80.71
2022-09-20T18:50:21.444Z,80.72
2022-09-20T18:52:42.872Z,80.20
2022-09-20T18:55:07.135Z,79.65
2022-09-20T18:57:28.747Z,79.70
2022-09-20T18:59:54.675Z,79.78
2022-09-20T19:03:04.770Z,79.17
2022-09-20T19:05:44.055Z,78.92
2022-09-20T19:08:34.378Z,78.84
2022-09-20T19:11:04.217Z,78.79
2022-09-20T19:13:41.697Z,78.64
2022-09-20T19:16:15.477Z,78.74
2022-09-20T19:19:13.459Z,79.67
2022-09-20T19:21:59.061Z,79.66
2022-09-20T19:24:59.204Z,79.47
2022-09-20T19:27:20.979Z,79.70
2022-09-20T19:29:42.879Z,79.56
2022-09-20T19:32:04.818Z,79.33
2022-09-20T19:34:32.036Z,79.07
2022-09-20T19:37:18.692Z,78.99
2022-09-20T19:40:06.635Z,79.21
2022-09-20T19:42:43.063Z,79.14
2022-09-20T19:45:04.522Z,78.87
2022-09-20T19:47:46.515Z,78.90
2022-09-20T19:50:16.181Z,78.65
2022-09-20T19:52:39.393Z,78.90
2022-09-20T19:55:01.164Z,78.85
2022-09-20T19:57:30.863Z,78.70
2022-09-20T19:59:52.550Z,79.63
2022-09-20T20:02:14.192Z,79.21
2022-09-20T20:04:35.823Z,79.19
2022-09-20T20:07:07.149Z,79.37
2022-09-20T20:09:47.139Z,78.85
2022-09-20T20:12:25.594Z,78.69
2022-09-20T20:15:17.006Z,78.78
2022-09-20T20:17:53.784Z,78.67
2022-09-20T20:20:39.675Z,78.40
2022-09-20T20:23:19.240Z,78.64
2022-09-20T20:26:03.082Z,79.07
2022-09-20T20:28:24.720Z,79.20
2022-09-20T20:30:46.159Z,79.82
2022-09-20T20:33:08.125Z,79.30
2022-09-20T20:35:29.553Z,79.32
2022-09-20T20:37:51.079Z,79.12
2022-09-20T20:40:14.048Z,79.16
2022-09-20T20:42:37.063Z,81.27
2022-09-20T20:44:58.868Z,79.73
2022-09-20T20:47:20.281Z,79.62
2022-09-20T20:49:42.326Z,79.33
2022-09-20T20:52:05.146Z,79.08
2022-09-20T20:54:26.682Z,78.80
2022-09-20T20:56:48.122Z,78.52
2022-09-20T20:59:09.582Z,80.24
2022-09-20T21:01:31.955Z,81.13
2022-09-20T21:03:54.872Z,81.40
2022-09-20T21:06:17.136Z,81.33
2022-09-20T21:08:42.358Z,80.70
2022-09-20T21:11:11.555Z,80.74
2022-09-20T21:13:33.007Z,80.60
2022-09-20T21:15:54.441Z,80.79
2022-09-20T21:18:15.942Z,81.42
2022-09-20T21:20:38.421Z,81.10
2022-09-20T21:22:59.833Z,80.61
2022-09-20T21:25:21.269Z,80.19
2022-09-20T21:27:42.741Z,80.15
2022-09-20T21:30:05.104Z,80.08
2022-09-20T21:32:26.537Z,79.99
2022-09-20T21:34:47.962Z,79.61
2022-09-20T21:37:10.567Z,79.59
2022-09-20T21:39:31.986Z,79.49
2022-09-20T21:41:54.250Z,79.57
2022-09-20T21:44:16.257Z,79.85
2022-09-20T21:46:40.343Z,81.02
2022-09-20T21:49:06.760Z,80.38
2022-09-20T21:51:31.280Z,79.87
2022-09-20T21:53:54.332Z,79.75
2022-09-20T21:56:17.591Z,79.76
2022-09-20T21:58:40.181Z,79.72
2022-09-20T22:01:10.047Z,79.84
2022-09-20T22:03:37.510Z,80.34
2022-09-20T22:06:05.283Z,80.16
2022-09-20T22:08:27.377Z,80.82
2022-09-20T22:10:56.845Z,80.05
2022-09-20T22:13:18.290Z,79.86
2022-09-20T22:15:39.745Z,79.56
2022-09-20T22:18:01.257Z,79.76
2022-09-20T22:20:22.705Z,79.72
2022-09-20T22:22:44.144Z,79.22
2022-09-20T22:25:05.989Z,79.32
2022-09-20T22:27:27.419Z,79.72
2022-09-20T22:29:48.842Z,79.71
2022-09-20T22:32:10.305Z,79.73
2022-09-20T22:34:31.742Z,80.15
2022-09-20T22:36:53.859Z,80.25
2022-09-20T22:39:15.930Z,80.21
2022-09-20T22:41:38.491Z,80.67
2022-09-20T22:44:00.045Z,79.94
2022-09-20T22:46:24.151Z,80.22
2022-09-20T22:48:46.060Z,79.92
2022-09-20T22:51:12.880Z,79.86
2022-09-20T22:53:34.834Z,79.74
2022-09-20T22:56:21.871Z,79.56
2022-09-20T22:58:48.435Z,79.58
2022-09-20T23:01:30.971Z,79.92
2022-09-20T23:03:59.425Z,79.98
2022-09-20T23:06:24.473Z,80.18
2022-09-20T23:08:45.915Z,80.37
2022-09-20T23:11:08.067Z,80.98
2022-09-20T23:13:29.700Z,80.54
2022-09-20T23:15:51.113Z,80.66
2022-09-20T23:18:12.538Z,80.48
2022-09-20T23:20:33.958Z,80.11
2022-09-20T23:22:55.389Z,80.24
2022-09-20T23:25:16.916Z,80.07
2022-09-20T23:27:38.396Z,79.83
2022-09-20T23:29:59.805Z,79.86
2022-09-20T23:32:21.232Z,79.99
2022-09-20T23:34:42.664Z,80.41
2022-09-20T23:37:04.093Z,80.57
2022-09-20T23:39:25.535Z,82.34
2022-09-20T23:41:50.913Z,81.93
2022-09-20T23:44:12.806Z,81.67
2022-09-20T23:46:34.618Z,82.05
2022-09-20T23:48:56.087Z,81.66
2022-09-20T23:51:20.501Z,81.97
2022-09-20T23:53:43.078Z,82.70
2022-09-20T23:56:06.184Z,83.21
2022-09-20T23:58:27.722Z,83.04
